EIN05A EGKK-EINN
Flight info
| Callsign | EIN05A |
|---|---|
| Flight time | 1h 8m |
| Altitude | 36000 |
| Route | IMVUR N63 SAM N19 ADKIK DCT MOPAT DCT KURUM KURUM2E |
| Aircraft | A320/M-SDE3FGHIRWY/LB1 |
Departure
| Time | 2026-05-05 19:20 |
|---|---|
| Airport | London Gatwick Airport (EGKK) |
Arrival
| Time | 2026-05-05 20:28 |
|---|---|
| Airport | Shannon Airport (EINN) |
| Time | Latitude | Longitude | Altitude | Speed | Heading |
|---|---|---|---|---|---|
| 2026-05-05 18:42 | 51.15481 | -0.17031 | 195 ft | 0 kts | 348° |
| 2026-05-05 19:05 | 51.15466 | -0.17026 | 214 ft | 4 kts | 342° |
| 2026-05-05 19:05 | 51.15442 | -0.17009 | 212 ft | 4 kts | 318° |
| 2026-05-05 19:05 | 51.15429 | -0.16977 | 213 ft | 3 kts | 261° |
| 2026-05-05 19:05 | 51.15431 | -0.16965 | 214 ft | 0 kts | 257° |
| 2026-05-05 19:11 | 51.15429 | -0.16978 | 209 ft | 3 kts | 257° |
| 2026-05-05 19:11 | 51.15424 | -0.17017 | 205 ft | 5 kts | 257° |
| 2026-05-05 19:11 | 51.15415 | -0.17077 | 210 ft | 7 kts | 257° |
| 2026-05-05 19:11 | 51.15399 | -0.17154 | 214 ft | 8 kts | 244° |
| 2026-05-05 19:12 | 51.15377 | -0.17248 | 208 ft | 10 kts | 251° |
| 2026-05-05 19:12 | 51.15346 | -0.17354 | 206 ft | 11 kts | 218° |
| 2026-05-05 19:12 | 51.15299 | -0.17457 | 212 ft | 13 kts | 258° |
| 2026-05-05 19:12 | 51.15280 | -0.17608 | 205 ft | 15 kts | 258° |
| 2026-05-05 19:13 | 51.15257 | -0.17779 | 210 ft | 17 kts | 258° |
| 2026-05-05 19:13 | 51.15231 | -0.17968 | 210 ft | 18 kts | 256° |
| 2026-05-05 19:13 | 51.15202 | -0.18173 | 205 ft | 20 kts | 258° |
| 2026-05-05 19:13 | 51.15177 | -0.18400 | 209 ft | 22 kts | 259° |
| 2026-05-05 19:14 | 51.15143 | -0.18651 | 209 ft | 25 kts | 257° |
| 2026-05-05 19:14 | 51.15104 | -0.18936 | 205 ft | 27 kts | 258° |
| 2026-05-05 19:14 | 51.15071 | -0.19169 | 211 ft | 11 kts | 257° |
| 2026-05-05 19:14 | 51.15033 | -0.19267 | 208 ft | 11 kts | 199° |
| 2026-05-05 19:15 | 51.14967 | -0.19297 | 215 ft | 10 kts | 225° |
| 2026-05-05 19:15 | 51.14944 | -0.19415 | 207 ft | 14 kts | 258° |
| 2026-05-05 19:15 | 51.14917 | -0.19608 | 207 ft | 21 kts | 258° |
| 2026-05-05 19:15 | 51.14879 | -0.19876 | 208 ft | 27 kts | 258° |
| 2026-05-05 19:16 | 51.14872 | -0.19920 | 211 ft | 0 kts | 256° |
| 2026-05-05 19:16 | 51.14869 | -0.19944 | 208 ft | 6 kts | 256° |
| 2026-05-05 19:16 | 51.14854 | -0.20059 | 207 ft | 15 kts | 259° |
| 2026-05-05 19:16 | 51.14830 | -0.20248 | 203 ft | 16 kts | 258° |
| 2026-05-05 19:17 | 51.14807 | -0.20444 | 204 ft | 21 kts | 258° |
| 2026-05-05 19:17 | 51.14780 | -0.20639 | 209 ft | 13 kts | 257° |
| 2026-05-05 19:17 | 51.14726 | -0.20721 | 205 ft | 10 kts | 179° |
| 2026-05-05 19:17 | 51.14689 | -0.20655 | 213 ft | 7 kts | 113° |
| 2026-05-05 19:18 | 51.14673 | -0.20585 | 206 ft | 8 kts | 110° |
| 2026-05-05 19:18 | 51.14643 | -0.20505 | 210 ft | 8 kts | 130° |
| 2026-05-05 19:18 | 51.14624 | -0.20447 | 214 ft | 5 kts | 96° |
| 2026-05-05 19:18 | 51.14627 | -0.20409 | 214 ft | 2 kts | 78° |
| 2026-05-05 19:19 | 51.14627 | -0.20408 | 214 ft | 0 kts | 77° |
| 2026-05-05 19:19 | 51.14652 | -0.20228 | 209 ft | 52 kts | 77° |
| 2026-05-05 19:19 | 51.14782 | -0.19295 | 208 ft | 117 kts | 77° |
| 2026-05-05 19:19 | 51.14987 | -0.17761 | 352 ft | 153 kts | 78° |
| 2026-05-05 19:20 | 51.15195 | -0.16120 | 1075 ft | 151 kts | 77° |
| 2026-05-05 19:20 | 51.15424 | -0.14449 | 1667 ft | 163 kts | 77° |
| 2026-05-05 19:20 | 51.15686 | -0.12562 | 2028 ft | 185 kts | 76° |
| 2026-05-05 19:20 | 51.15987 | -0.10424 | 2359 ft | 210 kts | 76° |
| 2026-05-05 19:21 | 51.16314 | -0.08089 | 2910 ft | 224 kts | 75° |
| 2026-05-05 19:21 | 51.16927 | -0.05867 | 3003 ft | 218 kts | 44° |
| 2026-05-05 19:21 | 51.18269 | -0.04861 | 3027 ft | 218 kts | 2° |
| 2026-05-05 19:21 | 51.19762 | -0.05119 | 3020 ft | 220 kts | 350° |
| 2026-05-05 19:22 | 51.21246 | -0.05700 | 3009 ft | 221 kts | 338° |
| 2026-05-05 19:22 | 51.22411 | -0.07277 | 3008 ft | 225 kts | 302° |
| 2026-05-05 19:22 | 51.22795 | -0.09834 | 3018 ft | 256 kts | 268° |
| 2026-05-05 19:22 | 51.22564 | -0.12708 | 3003 ft | 264 kts | 262° |
| 2026-05-05 19:23 | 51.22226 | -0.15605 | 3034 ft | 268 kts | 260° |
| 2026-05-05 19:23 | 51.21854 | -0.18529 | 3950 ft | 268 kts | 260° |
| 2026-05-05 19:23 | 51.21481 | -0.21450 | 4998 ft | 270 kts | 261° |
| 2026-05-05 19:23 | 51.21113 | -0.24400 | 5971 ft | 272 kts | 261° |
| 2026-05-05 19:24 | 51.20747 | -0.27404 | 6547 ft | 275 kts | 261° |
| 2026-05-05 19:24 | 51.20389 | -0.30411 | 7042 ft | 277 kts | 261° |
| 2026-05-05 19:24 | 51.20035 | -0.33452 | 7546 ft | 279 kts | 261° |
| 2026-05-05 19:24 | 51.19675 | -0.36495 | 8055 ft | 281 kts | 261° |
| 2026-05-05 19:25 | 51.19289 | -0.39524 | 8565 ft | 283 kts | 260° |
| 2026-05-05 19:25 | 51.18881 | -0.42602 | 9091 ft | 285 kts | 259° |
| 2026-05-05 19:25 | 51.18468 | -0.45703 | 9640 ft | 287 kts | 259° |
| 2026-05-05 19:25 | 51.18051 | -0.48842 | 9897 ft | 290 kts | 259° |
| 2026-05-05 19:26 | 51.17634 | -0.51988 | 9940 ft | 290 kts | 259° |
| 2026-05-05 19:26 | 51.16997 | -0.55039 | 9945 ft | 295 kts | 248° |
| 2026-05-05 19:26 | 51.16153 | -0.58211 | 9951 ft | 324 kts | 248° |
| 2026-05-05 19:26 | 51.15257 | -0.61568 | 9945 ft | 331 kts | 248° |
| 2026-05-05 19:27 | 51.14353 | -0.64945 | 9945 ft | 332 kts | 248° |
| 2026-05-05 19:27 | 51.13458 | -0.68285 | 9946 ft | 332 kts | 248° |
| 2026-05-05 19:27 | 51.12536 | -0.71731 | 9947 ft | 333 kts | 248° |
| 2026-05-05 19:27 | 51.11626 | -0.75133 | 9945 ft | 332 kts | 248° |
| 2026-05-05 19:28 | 51.10720 | -0.78516 | 9948 ft | 333 kts | 248° |
| 2026-05-05 19:28 | 51.09811 | -0.81900 | 9949 ft | 333 kts | 248° |
| 2026-05-05 19:28 | 51.08896 | -0.85305 | 10312 ft | 337 kts | 248° |
| 2026-05-05 19:28 | 51.07970 | -0.88747 | 10576 ft | 337 kts | 248° |
| 2026-05-05 19:29 | 51.07048 | -0.92170 | 10821 ft | 336 kts | 248° |
| 2026-05-05 19:29 | 51.06137 | -0.95548 | 11071 ft | 337 kts | 248° |
| 2026-05-05 19:29 | 51.05207 | -0.98991 | 11316 ft | 339 kts | 248° |
| 2026-05-05 19:29 | 51.04275 | -1.02433 | 11562 ft | 340 kts | 248° |
| 2026-05-05 19:30 | 51.03338 | -1.05889 | 11818 ft | 341 kts | 248° |
| 2026-05-05 19:30 | 51.02396 | -1.09353 | 12169 ft | 342 kts | 248° |
| 2026-05-05 19:30 | 51.01446 | -1.12847 | 12559 ft | 345 kts | 248° |
| 2026-05-05 19:30 | 51.00490 | -1.16356 | 12952 ft | 347 kts | 248° |
| 2026-05-05 19:31 | 50.99527 | -1.19882 | 13353 ft | 349 kts | 248° |
| 2026-05-05 19:31 | 50.98559 | -1.23427 | 13746 ft | 352 kts | 247° |
| 2026-05-05 19:31 | 50.97583 | -1.27001 | 14103 ft | 353 kts | 248° |
| 2026-05-05 19:31 | 50.96615 | -1.30540 | 14466 ft | 355 kts | 247° |
| 2026-05-05 19:32 | 50.95663 | -1.34212 | 14843 ft | 356 kts | 253° |
| 2026-05-05 19:32 | 50.95082 | -1.37984 | 15210 ft | 358 kts | 259° |
| 2026-05-05 19:32 | 50.94589 | -1.41914 | 15588 ft | 360 kts | 259° |
| 2026-05-05 19:32 | 50.94102 | -1.45759 | 15990 ft | 361 kts | 259° |
| 2026-05-05 19:33 | 50.93602 | -1.49677 | 16484 ft | 364 kts | 259° |
| 2026-05-05 19:33 | 50.93096 | -1.53629 | 16983 ft | 367 kts | 259° |
| 2026-05-05 19:33 | 50.92584 | -1.57610 | 17493 ft | 370 kts | 259° |
| 2026-05-05 19:33 | 50.92066 | -1.61625 | 18003 ft | 374 kts | 259° |
| 2026-05-05 19:34 | 50.91542 | -1.65678 | 18503 ft | 376 kts | 259° |
| 2026-05-05 19:34 | 50.91016 | -1.69745 | 18961 ft | 377 kts | 259° |
| 2026-05-05 19:34 | 50.90486 | -1.73833 | 19421 ft | 378 kts | 259° |
| 2026-05-05 19:35 | 50.89425 | -1.81989 | 20367 ft | 379 kts | 259° |
| 2026-05-05 19:35 | 50.88888 | -1.86087 | 20855 ft | 380 kts | 259° |
| 2026-05-05 19:35 | 50.88351 | -1.90185 | 21344 ft | 381 kts | 259° |
| 2026-05-05 19:35 | 50.87808 | -1.94304 | 21848 ft | 383 kts | 259° |
| 2026-05-05 19:36 | 50.87261 | -1.98437 | 22358 ft | 384 kts | 259° |
| 2026-05-05 19:36 | 50.86711 | -2.02593 | 22881 ft | 386 kts | 259° |
| 2026-05-05 19:36 | 50.86159 | -2.06763 | 23459 ft | 387 kts | 259° |
| 2026-05-05 19:36 | 50.85610 | -2.10889 | 23980 ft | 388 kts | 259° |
| 2026-05-05 19:37 | 50.85051 | -2.15068 | 24502 ft | 389 kts | 258° |
| 2026-05-05 19:37 | 50.84488 | -2.19260 | 25029 ft | 389 kts | 258° |
| 2026-05-05 19:37 | 50.83922 | -2.23440 | 25578 ft | 388 kts | 258° |
| 2026-05-05 19:37 | 50.83354 | -2.27616 | 26134 ft | 388 kts | 258° |
| 2026-05-05 19:38 | 50.82791 | -2.31783 | 26698 ft | 387 kts | 258° |
| 2026-05-05 19:38 | 50.82232 | -2.35943 | 27279 ft | 386 kts | 257° |
| 2026-05-05 19:38 | 50.81671 | -2.40092 | 27870 ft | 384 kts | 257° |
| 2026-05-05 19:38 | 50.81109 | -2.44213 | 28472 ft | 383 kts | 257° |
| 2026-05-05 19:39 | 50.80549 | -2.48321 | 29088 ft | 381 kts | 258° |
| 2026-05-05 19:39 | 50.80227 | -2.52471 | 29721 ft | 379 kts | 266° |
| 2026-05-05 19:39 | 50.80296 | -2.56622 | 30308 ft | 378 kts | 275° |
| 2026-05-05 19:39 | 50.80745 | -2.60651 | 30853 ft | 376 kts | 283° |
| 2026-05-05 19:40 | 50.81450 | -2.64616 | 31412 ft | 373 kts | 284° |
| 2026-05-05 19:40 | 50.82150 | -2.68569 | 31918 ft | 372 kts | 284° |
| 2026-05-05 19:40 | 50.82839 | -2.72512 | 32428 ft | 370 kts | 283° |
| 2026-05-05 19:40 | 50.83521 | -2.76445 | 32938 ft | 368 kts | 284° |
| 2026-05-05 19:41 | 50.84194 | -2.80338 | 33457 ft | 365 kts | 284° |
| 2026-05-05 19:41 | 50.84860 | -2.84194 | 33980 ft | 362 kts | 284° |
| 2026-05-05 19:41 | 50.85524 | -2.88032 | 34297 ft | 363 kts | 284° |
| 2026-05-05 19:41 | 50.85967 | -2.90603 | 34407 ft | 366 kts | 284° |
| 2026-05-05 19:42 | 50.86864 | -2.95820 | 34734 ft | 369 kts | 284° |
| 2026-05-05 19:42 | 50.87543 | -2.99748 | 34970 ft | 371 kts | 284° |
| 2026-05-05 19:42 | 50.88226 | -3.03701 | 35220 ft | 373 kts | 284° |
| 2026-05-05 19:42 | 50.88678 | -3.06326 | 35383 ft | 374 kts | 284° |
| 2026-05-05 19:43 | 50.89581 | -3.11598 | 35715 ft | 375 kts | 284° |
| 2026-05-05 19:43 | 50.90264 | -3.15604 | 35871 ft | 380 kts | 284° |
| 2026-05-05 19:43 | 50.90955 | -3.19669 | 35955 ft | 385 kts | 284° |
| 2026-05-05 19:44 | 50.92140 | -3.26655 | 35984 ft | 398 kts | 284° |
| 2026-05-05 19:44 | 50.93588 | -3.35234 | 35982 ft | 412 kts | 284° |
| 2026-05-05 19:45 | 50.95083 | -3.44157 | 35985 ft | 426 kts | 284° |
| 2026-05-05 19:45 | 50.96616 | -3.53350 | 35985 ft | 433 kts | 284° |
| 2026-05-05 19:46 | 50.98152 | -3.62609 | 35991 ft | 434 kts | 284° |
| 2026-05-05 19:46 | 50.99685 | -3.71871 | 35995 ft | 434 kts | 284° |
| 2026-05-05 19:47 | 51.01218 | -3.81147 | 36003 ft | 434 kts | 284° |
| 2026-05-05 19:47 | 51.02724 | -3.90382 | 36002 ft | 434 kts | 284° |
| 2026-05-05 19:48 | 51.04230 | -3.99686 | 36003 ft | 434 kts | 285° |
| 2026-05-05 19:48 | 51.05732 | -4.08971 | 36003 ft | 434 kts | 285° |
| 2026-05-05 19:49 | 51.07233 | -4.18276 | 36008 ft | 434 kts | 285° |
| 2026-05-05 19:49 | 51.08717 | -4.27534 | 36010 ft | 434 kts | 285° |
| 2026-05-05 19:50 | 51.10198 | -4.36861 | 36014 ft | 434 kts | 285° |
| 2026-05-05 19:50 | 51.11672 | -4.46179 | 36012 ft | 434 kts | 285° |
| 2026-05-05 19:51 | 51.13137 | -4.55508 | 36019 ft | 434 kts | 285° |
| 2026-05-05 19:51 | 51.14598 | -4.64851 | 36015 ft | 433 kts | 285° |
| 2026-05-05 19:52 | 51.16041 | -4.74109 | 36025 ft | 433 kts | 284° |
| 2026-05-05 19:52 | 51.17476 | -4.83420 | 36032 ft | 432 kts | 284° |
| 2026-05-05 19:53 | 51.18904 | -4.92722 | 36031 ft | 432 kts | 284° |
| 2026-05-05 19:53 | 51.20325 | -5.02012 | 36039 ft | 431 kts | 284° |
| 2026-05-05 19:54 | 51.21739 | -5.11291 | 36033 ft | 430 kts | 284° |
| 2026-05-05 19:54 | 51.23812 | -5.20177 | 36045 ft | 428 kts | 296° |
| 2026-05-05 19:55 | 51.26422 | -5.28726 | 36041 ft | 428 kts | 296° |
| 2026-05-05 19:55 | 51.29040 | -5.37253 | 36038 ft | 427 kts | 296° |
| 2026-05-05 19:56 | 51.31650 | -5.45794 | 36037 ft | 427 kts | 296° |
| 2026-05-05 19:56 | 51.34229 | -5.54296 | 36037 ft | 427 kts | 295° |
| 2026-05-05 19:57 | 51.36819 | -5.62872 | 36036 ft | 428 kts | 295° |
| 2026-05-05 19:57 | 51.39408 | -5.71456 | 36036 ft | 428 kts | 295° |
| 2026-05-05 19:58 | 51.41990 | -5.80052 | 36036 ft | 428 kts | 295° |
| 2026-05-05 19:58 | 51.44544 | -5.88612 | 36040 ft | 428 kts | 295° |
| 2026-05-05 19:59 | 51.47110 | -5.97234 | 36038 ft | 428 kts | 295° |
| 2026-05-05 19:59 | 51.49681 | -6.05869 | 36049 ft | 428 kts | 295° |
| 2026-05-05 20:00 | 51.52244 | -6.14503 | 36050 ft | 428 kts | 295° |
| 2026-05-05 20:00 | 51.54794 | -6.23158 | 36053 ft | 428 kts | 295° |
| 2026-05-05 20:01 | 51.57327 | -6.31761 | 36051 ft | 428 kts | 295° |
| 2026-05-05 20:01 | 51.59868 | -6.40421 | 36052 ft | 428 kts | 295° |
| 2026-05-05 20:02 | 51.62403 | -6.49111 | 36061 ft | 428 kts | 295° |
| 2026-05-05 20:02 | 51.64922 | -6.57791 | 36063 ft | 428 kts | 295° |
| 2026-05-05 20:03 | 51.67438 | -6.66486 | 36061 ft | 427 kts | 295° |
| 2026-05-05 20:03 | 51.69930 | -6.75108 | 36060 ft | 427 kts | 294° |
| 2026-05-05 20:04 | 51.72433 | -6.83801 | 35842 ft | 427 kts | 294° |
| 2026-05-05 20:04 | 51.73684 | -6.88157 | 35588 ft | 427 kts | 294° |
| 2026-05-05 20:04 | 51.74931 | -6.92509 | 34964 ft | 427 kts | 294° |
| 2026-05-05 20:04 | 51.76172 | -6.96849 | 34150 ft | 423 kts | 294° |
| 2026-05-05 20:05 | 51.77392 | -7.01132 | 33533 ft | 417 kts | 294° |
| 2026-05-05 20:05 | 51.78596 | -7.05369 | 32995 ft | 412 kts | 294° |
| 2026-05-05 20:05 | 51.79768 | -7.09499 | 32462 ft | 408 kts | 294° |
| 2026-05-05 20:05 | 51.80945 | -7.13648 | 31952 ft | 404 kts | 294° |
| 2026-05-05 20:06 | 51.82108 | -7.17760 | 31415 ft | 401 kts | 294° |
| 2026-05-05 20:06 | 51.83260 | -7.21843 | 30905 ft | 397 kts | 294° |
| 2026-05-05 20:06 | 51.84402 | -7.25894 | 30391 ft | 394 kts | 294° |
| 2026-05-05 20:06 | 51.85535 | -7.29920 | 29848 ft | 392 kts | 294° |
| 2026-05-05 20:07 | 51.86656 | -7.33906 | 29340 ft | 387 kts | 294° |
| 2026-05-05 20:07 | 51.87768 | -7.37857 | 28846 ft | 382 kts | 294° |
| 2026-05-05 20:07 | 51.88863 | -7.41755 | 28364 ft | 378 kts | 294° |
| 2026-05-05 20:07 | 51.89944 | -7.45617 | 27900 ft | 374 kts | 294° |
| 2026-05-05 20:08 | 51.91013 | -7.49444 | 27440 ft | 371 kts | 294° |
| 2026-05-05 20:08 | 51.92069 | -7.53228 | 26985 ft | 367 kts | 294° |
| 2026-05-05 20:08 | 51.93118 | -7.56991 | 26553 ft | 364 kts | 294° |
| 2026-05-05 20:08 | 51.94154 | -7.60714 | 26120 ft | 361 kts | 294° |
| 2026-05-05 20:09 | 51.95178 | -7.64401 | 25707 ft | 357 kts | 294° |
| 2026-05-05 20:09 | 51.96196 | -7.68062 | 25283 ft | 354 kts | 294° |
| 2026-05-05 20:09 | 51.97201 | -7.71689 | 24861 ft | 351 kts | 293° |
| 2026-05-05 20:09 | 51.98193 | -7.75294 | 24448 ft | 348 kts | 293° |
| 2026-05-05 20:10 | 51.99163 | -7.78821 | 24033 ft | 345 kts | 293° |
| 2026-05-05 20:10 | 52.00144 | -7.82381 | 23605 ft | 343 kts | 293° |
| 2026-05-05 20:10 | 52.01114 | -7.85903 | 23129 ft | 341 kts | 293° |
| 2026-05-05 20:10 | 52.02076 | -7.89399 | 22708 ft | 337 kts | 293° |
| 2026-05-05 20:11 | 52.03027 | -7.92866 | 22285 ft | 334 kts | 293° |
| 2026-05-05 20:11 | 52.03966 | -7.96299 | 21868 ft | 331 kts | 293° |
| 2026-05-05 20:11 | 52.04895 | -7.99707 | 21448 ft | 329 kts | 293° |
| 2026-05-05 20:11 | 52.05820 | -8.03104 | 21036 ft | 327 kts | 293° |
| 2026-05-05 20:12 | 52.06742 | -8.06483 | 20600 ft | 326 kts | 294° |
| 2026-05-05 20:12 | 52.07661 | -8.09851 | 20180 ft | 325 kts | 294° |
| 2026-05-05 20:12 | 52.08577 | -8.13209 | 19763 ft | 324 kts | 294° |
| 2026-05-05 20:12 | 52.09488 | -8.16563 | 19343 ft | 324 kts | 294° |
| 2026-05-05 20:13 | 52.10385 | -8.19871 | 18933 ft | 323 kts | 294° |
| 2026-05-05 20:13 | 52.11291 | -8.23216 | 18513 ft | 322 kts | 294° |
| 2026-05-05 20:13 | 52.12195 | -8.26561 | 18065 ft | 322 kts | 294° |
| 2026-05-05 20:13 | 52.13094 | -8.29892 | 17648 ft | 320 kts | 294° |
| 2026-05-05 20:14 | 52.13985 | -8.33205 | 17247 ft | 319 kts | 294° |
| 2026-05-05 20:14 | 52.14869 | -8.36501 | 16842 ft | 317 kts | 294° |
| 2026-05-05 20:14 | 52.15753 | -8.39795 | 16450 ft | 315 kts | 294° |
| 2026-05-05 20:14 | 52.16619 | -8.43024 | 16055 ft | 314 kts | 294° |
| 2026-05-05 20:15 | 52.17490 | -8.46281 | 15669 ft | 313 kts | 294° |
| 2026-05-05 20:15 | 52.18357 | -8.49529 | 15275 ft | 312 kts | 294° |
| 2026-05-05 20:15 | 52.19222 | -8.52773 | 14878 ft | 311 kts | 294° |
| 2026-05-05 20:15 | 52.20085 | -8.56008 | 14478 ft | 311 kts | 294° |
| 2026-05-05 20:16 | 52.20947 | -8.59243 | 14093 ft | 310 kts | 294° |
| 2026-05-05 20:16 | 52.21806 | -8.62464 | 13671 ft | 310 kts | 294° |
| 2026-05-05 20:16 | 52.22715 | -8.65647 | 13268 ft | 308 kts | 301° |
| 2026-05-05 20:16 | 52.23959 | -8.68469 | 12851 ft | 305 kts | 312° |
| 2026-05-05 20:17 | 52.25372 | -8.71040 | 12439 ft | 304 kts | 312° |
| 2026-05-05 20:17 | 52.26780 | -8.73609 | 12026 ft | 303 kts | 312° |
| 2026-05-05 20:17 | 52.28182 | -8.76171 | 11612 ft | 301 kts | 312° |
| 2026-05-05 20:17 | 52.29556 | -8.78691 | 11207 ft | 300 kts | 312° |
| 2026-05-05 20:18 | 52.30943 | -8.81243 | 10788 ft | 299 kts | 312° |
| 2026-05-05 20:18 | 52.32321 | -8.83784 | 10372 ft | 298 kts | 312° |
| 2026-05-05 20:18 | 52.33680 | -8.86289 | 10172 ft | 289 kts | 312° |
| 2026-05-05 20:18 | 52.34982 | -8.88688 | 9874 ft | 274 kts | 312° |
| 2026-05-05 20:19 | 52.36199 | -8.90933 | 9731 ft | 256 kts | 312° |
| 2026-05-05 20:19 | 52.37371 | -8.93098 | 9435 ft | 253 kts | 312° |
| 2026-05-05 20:19 | 52.38531 | -8.95240 | 9100 ft | 251 kts | 312° |
| 2026-05-05 20:19 | 52.39686 | -8.97374 | 8759 ft | 249 kts | 312° |
| 2026-05-05 20:20 | 52.40828 | -8.99485 | 8430 ft | 247 kts | 312° |
| 2026-05-05 20:20 | 52.41964 | -9.01587 | 8091 ft | 245 kts | 312° |
| 2026-05-05 20:20 | 52.43075 | -9.03651 | 7748 ft | 244 kts | 311° |
| 2026-05-05 20:20 | 52.44193 | -9.05731 | 7423 ft | 243 kts | 311° |
| 2026-05-05 20:21 | 52.45322 | -9.07829 | 7093 ft | 242 kts | 311° |
| 2026-05-05 20:21 | 52.46419 | -9.09866 | 6768 ft | 241 kts | 311° |
| 2026-05-05 20:21 | 52.47653 | -9.11702 | 6430 ft | 240 kts | 322° |
| 2026-05-05 20:21 | 52.48970 | -9.13375 | 6068 ft | 239 kts | 322° |
| 2026-05-05 20:22 | 52.50283 | -9.15051 | 5724 ft | 238 kts | 322° |
| 2026-05-05 20:22 | 52.51587 | -9.16719 | 5379 ft | 237 kts | 322° |
| 2026-05-05 20:22 | 52.52931 | -9.18294 | 4960 ft | 234 kts | 333° |
| 2026-05-05 20:22 | 52.54453 | -9.19158 | 4378 ft | 233 kts | 352° |
| 2026-05-05 20:23 | 52.56032 | -9.19124 | 4034 ft | 222 kts | 11° |
| 2026-05-05 20:23 | 52.57437 | -9.18317 | 3801 ft | 208 kts | 28° |
| 2026-05-05 20:23 | 52.58564 | -9.16953 | 3566 ft | 195 kts | 44° |
| 2026-05-05 20:23 | 52.59406 | -9.15278 | 3345 ft | 184 kts | 50° |
| 2026-05-05 20:24 | 52.60166 | -9.13682 | 3076 ft | 171 kts | 50° |
| 2026-05-05 20:24 | 52.60877 | -9.12188 | 2851 ft | 160 kts | 50° |
| 2026-05-05 20:24 | 52.61536 | -9.10801 | 2621 ft | 148 kts | 49° |
| 2026-05-05 20:24 | 52.62157 | -9.09492 | 2424 ft | 143 kts | 49° |
| 2026-05-05 20:25 | 52.62761 | -9.08220 | 2229 ft | 140 kts | 49° |
| 2026-05-05 20:25 | 52.63356 | -9.06963 | 2051 ft | 139 kts | 49° |
| 2026-05-05 20:25 | 52.63942 | -9.05728 | 1862 ft | 138 kts | 48° |
| 2026-05-05 20:25 | 52.64532 | -9.04482 | 1686 ft | 138 kts | 48° |
| 2026-05-05 20:26 | 52.65123 | -9.03235 | 1485 ft | 139 kts | 49° |
| 2026-05-05 20:26 | 52.65714 | -9.01983 | 1305 ft | 138 kts | 49° |
| 2026-05-05 20:26 | 52.66307 | -9.00728 | 1101 ft | 139 kts | 49° |
| 2026-05-05 20:26 | 52.66901 | -8.99472 | 878 ft | 139 kts | 49° |
| 2026-05-05 20:27 | 52.67498 | -8.98211 | 696 ft | 141 kts | 50° |
| 2026-05-05 20:27 | 52.68102 | -8.96930 | 484 ft | 142 kts | 51° |
| 2026-05-05 20:27 | 52.68709 | -8.95642 | 300 ft | 143 kts | 51° |
| 2026-05-05 20:27 | 52.69322 | -8.94346 | 111 ft | 144 kts | 50° |
| 2026-05-05 20:28 | 52.69916 | -8.93121 | 40 ft | 118 kts | 52° |
| 2026-05-05 20:28 | 52.70311 | -8.92267 | 34 ft | 69 kts | 52° |
| 2026-05-05 20:28 | 52.70568 | -8.91723 | 27 ft | 48 kts | 51° |
| 2026-05-05 20:28 | 52.70736 | -8.91373 | 29 ft | 30 kts | 52° |
| 2026-05-05 20:29 | 52.70762 | -8.91201 | 26 ft | 1 kts | 133° |
| 2026-05-05 20:29 | 52.70742 | -8.91174 | 25 ft | 6 kts | 148° |
| 2026-05-05 20:29 | 52.70712 | -8.91158 | 25 ft | 0 kts | 167° |
| 2026-05-05 20:31 | 52.70707 | -8.91156 | 24 ft | 2 kts | 167° |
| 2026-05-05 20:31 | 52.70663 | -8.91140 | 23 ft | 10 kts | 168° |
| 2026-05-05 20:31 | 52.70594 | -8.91117 | 23 ft | 10 kts | 169° |
| 2026-05-05 20:31 | 52.70528 | -8.91097 | 23 ft | 9 kts | 169° |
| 2026-05-05 20:32 | 52.70449 | -8.91074 | 23 ft | 14 kts | 170° |
| 2026-05-05 20:32 | 52.70377 | -8.91053 | 23 ft | 18 kts | 169° |
| 2026-05-05 20:32 | 52.70256 | -8.91017 | 23 ft | 12 kts | 169° |
| 2026-05-05 20:32 | 52.70181 | -8.91016 | 22 ft | 10 kts | 195° |
| 2026-05-05 20:33 | 52.70091 | -8.91064 | 23 ft | 11 kts | 198° |
| 2026-05-05 20:33 | 52.70016 | -8.91106 | 22 ft | 12 kts | 199° |
| 2026-05-05 20:33 | 52.69958 | -8.91138 | 23 ft | 14 kts | 199° |
| 2026-05-05 20:33 | 52.69862 | -8.91193 | 23 ft | 16 kts | 198° |
| 2026-05-05 20:34 | 52.69752 | -8.91254 | 24 ft | 18 kts | 198° |
| 2026-05-05 20:34 | 52.69629 | -8.91320 | 23 ft | 19 kts | 199° |
| 2026-05-05 20:34 | 52.69497 | -8.91396 | 22 ft | 21 kts | 199° |
| 2026-05-05 20:34 | 52.69375 | -8.91463 | 23 ft | 14 kts | 199° |
| 2026-05-05 20:35 | 52.69298 | -8.91506 | 22 ft | 9 kts | 198° |
| 2026-05-05 20:35 | 52.69260 | -8.91575 | 22 ft | 10 kts | 275° |
| 2026-05-05 20:35 | 52.69302 | -8.91677 | 22 ft | 12 kts | 309° |
| 2026-05-05 20:35 | 52.69373 | -8.91749 | 22 ft | 7 kts | 342° |
| 2026-05-05 20:36 | 52.69416 | -8.91782 | 24 ft | 8 kts | 321° |
| 2026-05-05 20:36 | 52.69444 | -8.91869 | 23 ft | 10 kts | 288° |
| 2026-05-05 20:36 | 52.69462 | -8.91978 | 22 ft | 6 kts | 285° |
| 2026-05-05 20:36 | 52.69464 | -8.92032 | 23 ft | 4 kts | 245° |
| 2026-05-05 20:37 | 52.69436 | -8.92047 | 23 ft | 4 kts | 188° |
| 2026-05-05 20:37 | 52.69407 | -8.92050 | 22 ft | 4 kts | 184° |
| 2026-05-05 20:37 | 52.69380 | -8.92054 | 22 ft | 2 kts | 185° |
| 2026-05-05 20:37 | 52.69370 | -8.92055 | 22 ft | 0 kts | 185° |